createdAt,value
2023-04-19T00:01:29.548Z,6.80
2023-04-19T00:03:56.838Z,6.43
2023-04-19T00:06:24.636Z,9.75
2023-04-19T00:08:51.610Z,6.95
2023-04-19T00:11:18.380Z,7.13
2023-04-19T00:13:45.480Z,6.60
2023-04-19T00:16:12.341Z,6.63
2023-04-19T00:18:39.139Z,5.82
2023-04-19T00:21:06.374Z,6.45
2023-04-19T00:23:33.080Z,6.40
2023-04-19T00:26:03.931Z,7.22
2023-04-19T00:28:31.099Z,8.10
2023-04-19T00:30:57.980Z,6.30
2023-04-19T00:33:24.798Z,6.15
2023-04-19T00:35:51.604Z,5.30
2023-04-19T00:38:19.793Z,6.28
2023-04-19T00:40:46.847Z,5.60
2023-04-19T00:43:20.031Z,5.78
2023-04-19T00:45:47.906Z,5.18
2023-04-19T00:48:15.258Z,6.18
2023-04-19T00:50:44.653Z,5.07
2023-04-19T00:53:11.441Z,5.05
2023-04-19T00:55:41.885Z,5.35
2023-04-19T00:58:10.364Z,5.28
2023-04-19T01:00:37.697Z,5.47
2023-04-19T01:03:04.747Z,5.40
2023-04-19T01:05:31.662Z,4.80
2023-04-19T01:07:58.422Z,6.38
2023-04-19T01:10:25.428Z,5.80
2023-04-19T01:12:52.139Z,5.15
2023-04-19T01:15:18.968Z,4.97
2023-04-19T01:17:49.340Z,6.22
2023-04-19T01:20:16.183Z,5.93
2023-04-19T01:22:42.921Z,6.88
2023-04-19T01:25:10.291Z,6.75
2023-04-19T01:27:37.031Z,5.50
2023-04-19T01:30:04.019Z,6.55
2023-04-19T01:32:30.781Z,5.88
2023-04-19T01:34:57.523Z,7.75
2023-04-19T01:37:24.219Z,8.98
2023-04-19T01:39:50.891Z,9.02
2023-04-19T01:42:17.590Z,9.93
2023-04-19T01:44:44.303Z,7.90
2023-04-19T01:47:11.210Z,9.80
2023-04-19T01:49:40.015Z,8.73
2023-04-19T01:52:06.756Z,10.70
2023-04-19T01:54:33.509Z,8.75
2023-04-19T01:57:00.204Z,8.05
2023-04-19T01:59:27.056Z,8.63
2023-04-19T02:01:53.835Z,9.45
2023-04-19T02:04:21.903Z,9.48
2023-04-19T02:06:48.676Z,8.23
2023-04-19T02:09:15.482Z,9.05
2023-04-19T02:11:42.464Z,8.95
2023-04-19T02:14:09.210Z,9.50
2023-04-19T02:16:36.502Z,10.82
2023-04-19T02:19:04.257Z,9.82
2023-04-19T02:21:31.852Z,8.48
2023-04-19T02:23:58.769Z,9.95
2023-04-19T02:26:26.134Z,7.88
2023-04-19T02:28:53.090Z,8.43
2023-04-19T02:31:19.844Z,9.13
2023-04-19T02:33:46.893Z,9.50
2023-04-19T02:36:13.685Z,6.75
2023-04-19T02:38:40.666Z,6.97
2023-04-19T02:41:07.473Z,8.65
2023-04-19T02:43:34.160Z,8.27
2023-04-19T02:46:02.008Z,7.32
2023-04-19T02:48:28.899Z,6.80
2023-04-19T02:50:55.932Z,8.65
2023-04-19T02:53:23.141Z,6.75
2023-04-19T02:55:50.721Z,7.72
2023-04-19T02:58:19.575Z,7.45
2023-04-19T03:00:56.856Z,8.18
2023-04-19T03:03:23.834Z,9.98
2023-04-19T03:05:50.757Z,8.23
2023-04-19T03:08:17.635Z,10.50
2023-04-19T03:10:45.424Z,7.10
2023-04-19T03:13:12.138Z,9.68
2023-04-19T03:15:38.916Z,10.57
2023-04-19T03:18:06.202Z,22.58
2023-04-19T03:20:34.404Z,13.27
2023-04-19T03:23:01.101Z,9.32
2023-04-19T03:25:28.325Z,8.75
2023-04-19T03:28:05.590Z,9.43
2023-04-19T03:30:55.685Z,9.43
2023-04-19T03:33:22.471Z,11.35
2023-04-19T03:35:49.287Z,10.90
2023-04-19T03:38:15.965Z,12.18
2023-04-19T03:40:43.232Z,10.70
2023-04-19T03:43:13.614Z,10.57
2023-04-19T03:45:40.410Z,10.23
2023-04-19T03:48:07.328Z,11.60
2023-04-19T03:50:34.872Z,10.95
2023-04-19T03:53:03.993Z,10.63
2023-04-19T03:55:31.457Z,9.07
2023-04-19T03:57:59.187Z,11.40
2023-04-19T04:00:48.738Z,11.65
2023-04-19T04:03:15.611Z,13.23
2023-04-19T04:05:42.613Z,13.32
2023-04-19T04:08:09.655Z,16.90
2023-04-19T04:10:36.362Z,11.45
2023-04-19T04:13:04.316Z,11.75
2023-04-19T04:15:40.070Z,13.50
2023-04-19T04:18:09.251Z,12.77
2023-04-19T04:20:36.823Z,12.73
2023-04-19T04:23:07.586Z,12.38
2023-04-19T04:25:37.463Z,12.90
2023-04-19T04:28:06.833Z,12.10
2023-04-19T04:30:34.280Z,14.90
2023-04-19T04:33:01.744Z,11.32
2023-04-19T04:35:30.051Z,9.15
2023-04-19T04:38:14.056Z,10.35
2023-04-19T04:40:55.610Z,11.40
2023-04-19T04:43:23.331Z,12.13
2023-04-19T04:45:50.605Z,13.20
2023-04-19T04:48:18.046Z,11.82
2023-04-19T04:50:44.846Z,15.90
2023-04-19T04:53:13.264Z,13.23
2023-04-19T04:55:42.142Z,17.20
2023-04-19T04:58:08.934Z,26.15
2023-04-19T05:00:58.594Z,11.63
2023-04-19T05:03:27.514Z,25.25
2023-04-19T05:05:59.578Z,12.13
2023-04-19T05:08:26.936Z,14.63
2023-04-19T05:10:57.987Z,35.88
2023-04-19T05:13:27.621Z,21.45
2023-04-19T05:15:55.470Z,27.38
2023-04-19T05:18:24.720Z,16.65
2023-04-19T05:20:51.464Z,18.20
2023-04-19T05:23:22.050Z,14.38
2023-04-19T05:25:51.070Z,12.88
2023-04-19T05:28:18.082Z,16.38
2023-04-19T05:30:56.580Z,17.80
2023-04-19T05:33:33.072Z,18.95
2023-04-19T05:36:00.690Z,16.30
2023-04-19T05:38:28.471Z,19.65
2023-04-19T05:40:57.990Z,20.58
2023-04-19T05:43:24.702Z,20.73
2023-04-19T05:45:51.477Z,19.00
2023-04-19T05:48:19.192Z,18.33
2023-04-19T05:50:58.038Z,19.75
2023-04-19T05:53:42.317Z,17.40
2023-04-19T05:56:09.171Z,17.45
2023-04-19T05:58:35.936Z,17.90
2023-04-19T06:01:04.392Z,18.45
2023-04-19T06:03:32.499Z,18.77
2023-04-19T06:06:00.551Z,19.60
2023-04-19T06:08:27.359Z,19.48
2023-04-19T06:13:24.072Z,18.90
2023-04-19T06:15:52.329Z,19.67
2023-04-19T06:18:20.373Z,19.35
2023-04-19T06:20:47.540Z,21.23
2023-04-19T06:23:14.904Z,22.20
2023-04-19T06:25:41.882Z,21.17
2023-04-19T06:28:08.584Z,21.10
2023-04-19T06:30:35.581Z,20.90
2023-04-19T06:33:02.431Z,25.13
2023-04-19T06:35:29.135Z,19.60
2023-04-19T06:37:56.052Z,23.33
2023-04-19T06:40:23.117Z,19.73
2023-04-19T06:42:49.880Z,20.75
2023-04-19T06:45:16.779Z,18.58
2023-04-19T06:47:43.649Z,19.33
2023-04-19T06:50:11.196Z,19.80
2023-04-19T06:52:38.333Z,20.77
2023-04-19T06:55:06.903Z,22.52
2023-04-19T06:57:33.632Z,19.58
2023-04-19T07:00:00.457Z,20.80
2023-04-19T07:02:27.286Z,23.60
2023-04-19T07:04:54.037Z,20.95
2023-04-19T07:07:20.758Z,21.70
2023-04-19T07:09:47.500Z,17.58
2023-04-19T07:12:14.172Z,16.08
2023-04-19T07:14:40.872Z,16.73
2023-04-19T07:17:07.538Z,17.02
2023-04-19T07:19:35.538Z,13.95
2023-04-19T07:22:03.132Z,15.45
2023-04-19T07:24:30.395Z,14.73
2023-04-19T07:26:57.605Z,14.20
2023-04-19T07:29:24.693Z,12.57
2023-04-19T07:31:51.956Z,15.45
2023-04-19T07:34:18.671Z,14.20
2023-04-19T07:36:45.372Z,14.32
2023-04-19T07:39:13.900Z,11.88
2023-04-19T07:41:40.624Z,13.80
2023-04-19T07:44:07.315Z,11.27
2023-04-19T07:46:34.753Z,10.90
2023-04-19T07:49:01.529Z,10.85
2023-04-19T07:51:28.187Z,9.32
2023-04-19T07:53:54.997Z,11.38
2023-04-19T07:56:22.820Z,9.77
2023-04-19T07:59:04.214Z,10.65
2023-04-19T08:01:34.785Z,9.70
2023-04-19T08:04:01.927Z,9.70
2023-04-19T08:06:30.406Z,9.38
2023-04-19T08:08:57.122Z,11.07
2023-04-19T08:11:25.032Z,8.95
2023-04-19T08:14:04.558Z,9.45
2023-04-19T08:19:05.916Z,11.07
2023-04-19T08:21:40.418Z,10.27
2023-04-19T08:24:08.677Z,10.10
2023-04-19T08:26:35.546Z,10.55
2023-04-19T08:29:02.541Z,10.65
2023-04-19T08:31:29.314Z,10.18
2023-04-19T08:33:57.042Z,13.48
2023-04-19T08:36:37.105Z,9.95
2023-04-19T08:39:14.700Z,8.80
2023-04-19T08:41:59.033Z,10.03
2023-04-19T08:44:36.466Z,11.13
2023-04-19T08:47:04.445Z,8.25
2023-04-19T08:49:34.954Z,8.40
2023-04-19T08:52:02.408Z,11.70
2023-04-19T08:54:32.399Z,11.15
2023-04-19T08:57:00.529Z,9.55
2023-04-19T08:59:27.348Z,13.20
2023-04-19T09:01:55.881Z,14.57
2023-04-19T09:04:36.319Z,11.45
2023-04-19T09:07:03.876Z,12.73
2023-04-19T09:09:36.970Z,14.90
2023-04-19T09:12:17.728Z,18.17
2023-04-19T09:15:00.439Z,14.55
2023-04-19T09:17:28.521Z,16.50
2023-04-19T09:19:55.431Z,16.27
2023-04-19T09:22:22.225Z,15.95
2023-04-19T09:27:34.032Z,14.27
2023-04-19T09:30:02.844Z,17.27
2023-04-19T09:32:44.399Z,15.27
2023-04-19T09:35:11.204Z,17.20
2023-04-19T09:38:02.092Z,19.27
2023-04-19T09:40:28.455Z,18.13
2023-04-19T09:43:08.876Z,33.70
2023-04-19T09:45:43.879Z,38.50
2023-04-19T09:48:11.630Z,28.05
2023-04-19T09:51:02.458Z,20.60
2023-04-19T09:53:35.160Z,20.85
2023-04-19T09:56:03.363Z,51.63
2023-04-19T09:58:46.286Z,20.88
2023-04-19T10:01:17.572Z,39.33
2023-04-19T10:03:50.363Z,35.63
2023-04-19T10:08:50.926Z,25.90
2023-04-19T10:11:21.587Z,19.73
2023-04-19T10:13:49.637Z,23.13
2023-04-19T10:16:20.114Z,22.85
2023-04-19T10:18:50.000Z,25.77
2023-04-19T10:21:17.325Z,21.70
2023-04-19T10:23:44.567Z,23.48
2023-04-19T10:26:11.314Z,20.95
2023-04-19T10:28:38.307Z,21.27
2023-04-19T10:31:05.756Z,23.15
2023-04-19T10:33:37.353Z,24.88
2023-04-19T10:36:08.354Z,29.40
2023-04-19T10:38:39.370Z,24.52
2023-04-19T10:41:13.541Z,26.73
2023-04-19T10:43:54.652Z,26.95
2023-04-19T10:46:21.292Z,26.30
2023-04-19T10:49:00.581Z,26.88
2023-04-19T10:51:28.360Z,25.52
2023-04-19T10:54:07.386Z,29.13
2023-04-19T10:56:34.198Z,26.75
2023-04-19T10:59:15.019Z,28.38
2023-04-19T11:01:45.846Z,23.60
2023-04-19T11:04:21.701Z,25.42
2023-04-19T11:06:51.510Z,31.10
2023-04-19T11:09:42.235Z,26.13
2023-04-19T11:12:14.037Z,57.67
2023-04-19T11:14:42.170Z,49.92
2023-04-19T11:17:27.468Z,45.35
2023-04-19T11:20:01.686Z,30.70
2023-04-19T11:22:46.191Z,31.48
2023-04-19T11:25:18.026Z,31.77
2023-04-19T11:27:47.093Z,36.83
2023-04-19T11:30:15.193Z,33.42
2023-04-19T11:32:49.617Z,27.13
2023-04-19T11:35:20.647Z,29.42
2023-04-19T11:37:47.396Z,31.30
2023-04-19T11:40:18.833Z,28.02
2023-04-19T11:42:46.187Z,29.75
2023-04-19T11:47:53.196Z,28.05
2023-04-19T11:50:36.649Z,25.02
2023-04-19T11:53:10.708Z,27.17
2023-04-19T11:55:37.443Z,27.77
2023-04-19T11:58:09.608Z,22.70
2023-04-19T12:00:36.624Z,28.50
2023-04-19T12:03:04.400Z,26.90
2023-04-19T12:05:31.344Z,30.02
2023-04-19T12:08:10.938Z,25.55
2023-04-19T12:10:37.770Z,29.70
2023-04-19T12:13:17.666Z,26.20
2023-04-19T12:15:45.871Z,28.75
2023-04-19T12:18:12.856Z,29.52
2023-04-19T12:20:45.614Z,29.65
2023-04-19T12:23:14.059Z,35.75
2023-04-19T12:25:41.401Z,34.88
2023-04-19T12:28:08.429Z,35.55
2023-04-19T12:30:38.691Z,35.83
2023-04-19T12:33:06.743Z,34.45
2023-04-19T12:35:34.076Z,32.10
2023-04-19T12:38:02.642Z,35.30
2023-04-19T12:40:30.445Z,70.28
2023-04-19T12:42:57.149Z,39.00
2023-04-19T12:45:24.033Z,42.53
2023-04-19T12:47:51.038Z,37.60
2023-04-19T12:50:17.764Z,36.30
2023-04-19T12:52:45.526Z,38.95
2023-04-19T12:55:12.469Z,38.70
2023-04-19T12:57:39.354Z,36.42
2023-04-19T13:00:07.342Z,34.22
2023-04-19T13:02:35.186Z,30.77
2023-04-19T13:05:05.048Z,32.13
2023-04-19T13:07:31.925Z,31.80
2023-04-19T13:09:58.625Z,31.77
2023-04-19T13:12:25.510Z,29.45
2023-04-19T13:14:52.563Z,26.55
2023-04-19T13:17:20.036Z,28.08
2023-04-19T13:19:47.357Z,25.42
2023-04-19T13:22:14.249Z,26.42
2023-04-19T13:24:41.020Z,28.13
2023-04-19T13:27:09.125Z,26.25
2023-04-19T13:29:36.410Z,29.48
2023-04-19T13:32:03.545Z,25.85
2023-04-19T13:34:30.307Z,26.63
2023-04-19T13:36:57.648Z,27.25
2023-04-19T13:39:25.029Z,25.13
2023-04-19T13:41:51.679Z,26.02
2023-04-19T13:44:18.982Z,24.80
2023-04-19T13:46:46.130Z,26.02
2023-04-19T13:49:12.829Z,22.88
2023-04-19T13:51:49.568Z,21.38
2023-04-19T13:54:18.156Z,83.40
2023-04-19T13:56:45.432Z,118.22
2023-04-19T13:59:12.274Z,21.63
2023-04-19T14:01:38.990Z,19.60
2023-04-19T14:04:06.050Z,15.48
2023-04-19T14:06:33.383Z,15.05
2023-04-19T14:09:00.112Z,14.60
2023-04-19T14:11:26.889Z,15.65
2023-04-19T14:13:54.028Z,16.27
2023-04-19T14:16:21.085Z,13.30
2023-04-19T14:18:47.886Z,16.92
2023-04-19T14:21:14.785Z,16.60
2023-04-19T14:23:41.459Z,15.13
2023-04-19T14:26:08.140Z,18.95
2023-04-19T14:28:34.826Z,16.85
2023-04-19T14:31:01.527Z,17.92
2023-04-19T14:33:28.279Z,18.10
2023-04-19T14:35:55.016Z,14.18
2023-04-19T14:38:21.701Z,15.32
2023-04-19T14:40:48.713Z,16.33
2023-04-19T14:43:18.382Z,13.82
2023-04-19T14:45:45.174Z,14.55
2023-04-19T14:48:11.933Z,14.05
2023-04-19T14:50:38.693Z,13.60
2023-04-19T14:53:05.539Z,15.77
2023-04-19T14:55:32.302Z,18.95
2023-04-19T14:57:58.951Z,14.60
2023-04-19T15:00:27.051Z,14.75
2023-04-19T15:02:53.877Z,14.90
2023-04-19T15:05:23.817Z,16.17
2023-04-19T15:07:50.646Z,13.13
2023-04-19T15:10:17.324Z,13.07
2023-04-19T15:12:44.024Z,10.80
2023-04-19T15:15:11.622Z,16.95
2023-04-19T15:17:38.432Z,10.75
2023-04-19T15:20:05.887Z,11.13
2023-04-19T15:22:33.420Z,31.77
2023-04-19T15:25:03.802Z,19.27
2023-04-19T15:27:31.314Z,24.20
2023-04-19T15:29:58.009Z,7.13
2023-04-19T15:32:24.929Z,6.30
2023-04-19T15:34:51.706Z,5.28
2023-04-19T15:37:18.398Z,3.05
2023-04-19T15:39:45.161Z,3.05
2023-04-19T15:42:11.950Z,2.60
2023-04-19T15:44:38.630Z,2.90
2023-04-19T15:47:05.654Z,2.92
2023-04-19T15:49:32.633Z,3.22
2023-04-19T15:51:59.383Z,3.50
2023-04-19T15:54:27.191Z,2.88
2023-04-19T15:56:54.556Z,2.13
2023-04-19T15:59:21.361Z,2.40
2023-04-19T16:01:48.129Z,2.60
2023-04-19T16:04:15.185Z,2.03
2023-04-19T16:06:42.186Z,3.83
2023-04-19T16:09:09.061Z,4.03
2023-04-19T16:11:35.854Z,4.22
2023-04-19T16:14:02.532Z,5.45
2023-04-19T16:16:32.886Z,5.45
2023-04-19T16:18:59.842Z,7.30
2023-04-19T16:21:29.598Z,7.70
2023-04-19T16:23:56.510Z,8.23
2023-04-19T16:26:23.323Z,8.32
2023-04-19T16:28:50.069Z,7.35
2023-04-19T16:31:16.804Z,7.95
2023-04-19T16:33:43.584Z,7.90
2023-04-19T16:36:10.260Z,9.85
2023-04-19T16:38:36.952Z,7.82
2023-04-19T16:41:05.562Z,6.68
2023-04-19T16:43:32.430Z,5.80
2023-04-19T16:45:59.135Z,51.88
2023-04-19T16:48:27.058Z,6.07
2023-04-19T16:50:53.820Z,3.90
2023-04-19T16:53:20.564Z,4.28
2023-04-19T16:55:47.245Z,3.88
2023-04-19T16:58:14.349Z,4.15
2023-04-19T17:00:41.180Z,3.95
2023-04-19T17:03:09.259Z,4.40
2023-04-19T17:05:36.197Z,3.17
2023-04-19T17:08:02.885Z,3.90
2023-04-19T17:10:29.554Z,3.88
2023-04-19T17:12:56.411Z,3.40
2023-04-19T17:15:23.341Z,4.22
2023-04-19T17:17:50.050Z,3.15
2023-04-19T17:20:16.840Z,8.70
2023-04-19T17:22:43.564Z,14.73
2023-04-19T17:25:10.363Z,23.27
2023-04-19T17:27:37.057Z,3.28
2023-04-19T17:30:07.025Z,2.90
2023-04-19T17:32:33.811Z,4.38
2023-04-19T17:35:00.514Z,2.50
2023-04-19T17:37:27.208Z,2.25
2023-04-19T17:39:53.947Z,1.80
2023-04-19T17:42:20.679Z,1.85
2023-04-19T17:44:47.566Z,2.70
2023-04-19T17:47:14.303Z,2.40
2023-04-19T17:49:44.531Z,2.10
2023-04-19T17:52:11.251Z,2.53
2023-04-19T17:54:37.987Z,4.72
2023-04-19T17:57:05.308Z,6.85
2023-04-19T17:59:31.980Z,7.60
2023-04-19T18:01:58.741Z,6.93
2023-04-19T18:04:25.783Z,6.03
2023-04-19T18:06:52.609Z,9.05
2023-04-19T18:09:19.601Z,6.60
2023-04-19T18:11:47.564Z,5.60
2023-04-19T18:14:15.223Z,6.25
2023-04-19T18:16:42.011Z,4.57
2023-04-19T18:19:08.708Z,3.58
2023-04-19T18:21:35.597Z,6.20
2023-04-19T18:24:02.275Z,4.07
2023-04-19T18:26:41.781Z,4.10
2023-04-19T18:29:08.909Z,4.75
2023-04-19T18:31:35.778Z,4.43
2023-04-19T18:34:02.561Z,3.78
2023-04-19T18:36:29.319Z,4.38
2023-04-19T18:38:56.316Z,4.22
2023-04-19T18:41:23.434Z,4.35
2023-04-19T18:44:08.146Z,5.47
2023-04-19T18:46:36.916Z,4.45
2023-04-19T18:49:03.665Z,4.45
2023-04-19T18:51:30.685Z,4.70
2023-04-19T18:53:57.375Z,4.55
2023-04-19T18:56:50.246Z,5.13
2023-04-19T18:59:11.112Z,5.95
2023-04-19T19:01:37.821Z,5.40
2023-04-19T19:06:34.926Z,5.15
2023-04-19T19:09:01.693Z,5.82
2023-04-19T19:11:52.043Z,5.28
2023-04-19T19:14:15.261Z,5.03
2023-04-19T19:16:51.339Z,5.72
2023-04-19T19:19:20.634Z,5.47
2023-04-19T19:21:47.385Z,4.68
2023-04-19T19:24:14.111Z,7.03
2023-04-19T19:26:40.788Z,4.53
2023-04-19T19:29:09.254Z,5.60
2023-04-19T19:31:36.524Z,6.72
2023-04-19T19:34:14.738Z,5.22
2023-04-19T19:36:49.134Z,4.93
2023-04-19T19:39:16.096Z,4.72
2023-04-19T19:44:12.837Z,4.78
2023-04-19T19:46:39.663Z,4.25
2023-04-19T19:49:06.641Z,4.70
2023-04-19T19:54:04.696Z,4.28
2023-04-19T19:56:31.362Z,4.43
2023-04-19T19:58:58.049Z,3.97
2023-04-19T20:01:24.891Z,3.58
2023-04-19T20:03:55.669Z,2.95
2023-04-19T20:08:52.423Z,3.10
2023-04-19T20:11:19.301Z,4.38
2023-04-19T20:13:46.143Z,3.55
2023-04-19T20:16:14.524Z,2.88
2023-04-19T20:18:42.469Z,3.17
2023-04-19T20:21:09.607Z,2.80
2023-04-19T20:23:39.232Z,2.88
2023-04-19T20:26:06.096Z,2.28
2023-04-19T20:28:33.517Z,2.05
2023-04-19T20:31:00.369Z,3.03
2023-04-19T20:33:28.251Z,2.30
2023-04-19T20:35:59.793Z,2.45
2023-04-19T20:38:27.072Z,2.25
2023-04-19T20:40:53.798Z,2.20
2023-04-19T20:43:20.494Z,1.83
2023-04-19T20:45:47.316Z,1.70
2023-04-19T20:48:14.060Z,2.00
2023-04-19T20:50:41.944Z,1.60
2023-04-19T20:53:08.664Z,2.22
2023-04-19T20:55:35.392Z,1.80
2023-04-19T20:58:02.487Z,1.92
2023-04-19T21:00:29.226Z,2.10
2023-04-19T21:02:56.117Z,1.45
2023-04-19T21:05:22.940Z,1.88
2023-04-19T21:07:49.576Z,2.30
2023-04-19T21:10:17.205Z,3.85
2023-04-19T21:12:44.184Z,2.30
2023-04-19T21:15:12.173Z,2.00
2023-04-19T21:17:39.640Z,3.95
2023-04-19T21:20:12.186Z,5.63
2023-04-19T21:25:10.429Z,8.48
2023-04-19T21:27:37.140Z,11.20
2023-04-19T21:30:05.188Z,6.43
2023-04-19T21:32:32.772Z,9.80
2023-04-19T21:35:00.578Z,3.38
2023-04-19T21:37:27.899Z,2.55
2023-04-19T21:39:55.229Z,3.03
2023-04-19T21:42:22.029Z,3.38
2023-04-19T21:44:48.815Z,2.08
2023-04-19T21:47:15.549Z,1.83
2023-04-19T21:49:42.424Z,1.70
2023-04-19T21:52:09.124Z,1.38
2023-04-19T21:54:35.840Z,2.10
2023-04-19T21:57:02.838Z,1.42
2023-04-19T21:59:33.068Z,1.58
2023-04-19T22:01:59.948Z,1.88
2023-04-19T22:04:30.945Z,1.20
2023-04-19T22:07:03.536Z,1.30
2023-04-19T22:09:30.356Z,1.77
2023-04-19T22:11:57.076Z,1.23
2023-04-19T22:14:23.880Z,1.90
2023-04-19T22:16:50.834Z,4.53
2023-04-19T22:19:18.174Z,6.63
2023-04-19T22:21:46.589Z,3.80
2023-04-19T22:24:13.299Z,3.35
2023-04-19T22:26:39.984Z,2.15
2023-04-19T22:29:06.660Z,2.83
2023-04-19T22:31:33.445Z,2.00
2023-04-19T22:34:00.466Z,1.90
2023-04-19T22:36:28.181Z,2.97
2023-04-19T22:38:54.980Z,2.15
2023-04-19T22:41:21.765Z,2.20
2023-04-19T22:43:48.526Z,2.08
2023-04-19T22:46:15.297Z,2.20
2023-04-19T22:48:42.527Z,2.33
2023-04-19T22:51:09.445Z,2.30
2023-04-19T22:53:37.370Z,2.20
2023-04-19T22:56:04.697Z,2.28
2023-04-19T22:58:31.871Z,2.28
2023-04-19T23:00:58.568Z,2.20
2023-04-19T23:03:25.510Z,3.88
2023-04-19T23:05:54.184Z,2.30
2023-04-19T23:08:20.987Z,3.17
2023-04-19T23:10:51.750Z,2.53
2023-04-19T23:13:18.728Z,2.90
2023-04-19T23:15:47.223Z,2.65
2023-04-19T23:18:14.049Z,3.28
2023-04-19T23:20:41.456Z,3.83
2023-04-19T23:23:09.226Z,3.67
2023-04-19T23:25:35.943Z,4.97
2023-04-19T23:28:02.672Z,4.85
2023-04-19T23:30:29.766Z,6.80
2023-04-19T23:32:56.576Z,5.22
2023-04-19T23:35:23.444Z,3.42
2023-04-19T23:37:50.091Z,3.75
2023-04-19T23:40:16.773Z,3.25
2023-04-19T23:42:43.457Z,3.53
2023-04-19T23:45:11.403Z,2.95
2023-04-19T23:47:38.207Z,4.20
2023-04-19T23:50:05.263Z,3.33
2023-04-19T23:52:31.913Z,4.05
2023-04-19T23:54:58.827Z,4.15
2023-04-19T23:57:25.544Z,4.07
2023-04-19T23:59:52.227Z,2.60
